Holdrege, NE (68949)

9:55 AM CDT on March 28, 2017 (GMT -0500)
Brewster | | Change Station
Active Advisory: Dense Fog Advisory

Elev 2306 ft 40.45 °N, 99.34 °W | Updated 20 minutes ago

Overcast
Overcast
45 °F
Feels Like 39 °F
N
12
Wind Variable Wind from ESE

Today
High -- | Low -- °F
--% Chance of Precip.
Yesterday
High -- | Low -- °F
Precip. -- in
Pressure 30.03 in
Visibility 5.0 miles
Clouds Overcast 1900 ft
Windchill 39 °F
Dew Point 44 °F
Humidity 97%
Rainfall 0.00 in
Snow Depth Not available.
7:27 AM 7:58 PM
New Moon, 0% visible
METAR KHDE 281435Z AUTO 11010KT 5SM BR OVC019 07/07 A3003 RMK AO2 T00710067
Pressure 30.03 in
Visibility 5.0 miles
Clouds Overcast 1900 ft
Windchill 39 °F
Dew Point 44 °F
Humidity 97%
Rainfall 0.00 in
Snow Depth Not available.
7:27 AM 7:58 PM
New Moon, 0% visible
METAR KHDE 281435Z AUTO 11010KT 5SM BR OVC019 07/07 A3003 RMK AO2 T00710067

Get Your Daily Forecast Email!

Thanks for signing up!

Be on the lookout for a verification email in your inbox.

You'll start receiving severe weather alerts in your inbox..

×

10-Day Weather Forecast

Almanac

Astronomy

Mar. 28, 2017 Rise Set
Actual Time
Civil Twilight
Nautical Twilight
Astronomical Twilight
Moon
Length of Visible Light
Length of Day
Tomorrow will be .
, % of the Moon is Illuminated

Today's Extremes

State Highs State Lows

Community

WunderPhotos

Upload Photos

1,962,540 photos uploaded!

WunderBlog® & News

Nearby

Air Quality

  Air Quality AQ Index Pollutant
Not available.

Snow Depth

Station Depth Elevation

Earthquake Activity

City Distance Mag. Time & Date
Minimum magnitude displayed is 2.5.

Earthquake Activity

City Distance Mag. Time & Date
Minimum magnitude displayed is 2.5.

Coastal Water Temperatures

Place Temperature

Stations

Nearby Weather Stations

Station Location Temp. Windchill Dew Point Humidity Wind Precip. Elev Updated Type
                   

Watches & Warnings

Dense Fog Advisory
Issued: 9:53 AM CDT Mar. 28, 2017 – National Weather Service

... Dense fog advisory will expire at 10 am CDT this morning...

Visibilities have improved across the area. There could be a few
isolated locations with lower visibility, but those should improve
in the next hour or so. The dense fog advisory will be allowed to
expire.